Terminal Aerodrome Forecast
Issued by NWS Sioux Falls, SD

Home | Current Version | Previous Version | Text Only | Print | Product List | Glossary Off
Versions: 1 2 3 4 5 6 7 8 9 10 11 12 13 14

000
FTUS43 KFSD 300520
TAFHON
TAF
KHON 300520Z 3006/3106 14006KT P6SM VCTS BKN080CB
     FM300900 14008KT P6SM BKN120
     FM301500 14012KT P6SM BKN100
     FM301900 16016G24KT P6SM SCT050 SCT250
     FM310000 13010KT P6SM -TSRA BKN050CB
     FM310300 04007KT P6SM VCTS BKN050CB=

USA.gov is the U.S. government's official web portal to all federal, state and local government web resources and services.